createdAt,value
2023-10-23T00:02:39.443Z,2.60
2023-10-23T00:05:07.353Z,2.78
2023-10-23T00:07:35.089Z,3.17
2023-10-23T00:10:02.564Z,3.00
2023-10-23T00:12:30.040Z,3.00
2023-10-23T00:14:57.559Z,2.35
2023-10-23T00:17:25.064Z,2.40
2023-10-23T00:19:53.820Z,2.70
2023-10-23T00:22:21.241Z,2.83
2023-10-23T00:24:48.667Z,2.88
2023-10-23T00:27:16.144Z,2.90
2023-10-23T00:29:43.651Z,2.53
2023-10-23T00:32:11.081Z,2.72
2023-10-23T00:34:38.731Z,2.88
2023-10-23T00:37:07.665Z,2.83
2023-10-23T00:39:35.152Z,2.55
2023-10-23T00:42:03.870Z,2.80
2023-10-23T00:44:31.678Z,2.78
2023-10-23T00:49:25.921Z,2.67
2023-10-23T00:51:53.750Z,3.55
2023-10-23T00:56:50.458Z,2.95
2023-10-23T00:59:17.919Z,3.30
2023-10-23T01:01:45.738Z,3.15
2023-10-23T01:06:40.627Z,2.70
2023-10-23T01:09:08.142Z,3.08
2023-10-23T01:11:35.635Z,2.70
2023-10-23T01:14:04.440Z,3.05
2023-10-23T01:16:31.898Z,3.33
2023-10-23T01:18:59.811Z,2.88
2023-10-23T01:21:27.429Z,3.00
2023-10-23T01:23:55.470Z,3.10
2023-10-23T01:26:24.293Z,3.05
2023-10-23T01:28:51.829Z,2.97
2023-10-23T01:31:19.354Z,3.15
2023-10-23T01:33:46.866Z,2.50
2023-10-23T01:36:14.420Z,3.97
2023-10-23T01:38:44.271Z,3.25
2023-10-23T01:41:11.738Z,3.15
2023-10-23T01:43:40.541Z,3.10
2023-10-23T01:46:07.997Z,3.03
2023-10-23T01:48:35.540Z,3.15
2023-10-23T01:51:03.654Z,3.03
2023-10-23T01:53:31.189Z,2.83
2023-10-23T01:55:58.655Z,3.28
2023-10-23T01:58:26.487Z,3.70
2023-10-23T02:00:54.383Z,3.30
2023-10-23T02:05:49.858Z,2.88
2023-10-23T02:08:19.914Z,2.70
2023-10-23T02:10:47.364Z,2.75
2023-10-23T02:13:14.779Z,3.45
2023-10-23T02:15:42.273Z,2.97
2023-10-23T02:18:11.086Z,3.47
2023-10-23T02:20:38.581Z,3.50
2023-10-23T02:23:06.114Z,3.08
2023-10-23T02:25:33.533Z,3.05
2023-10-23T02:28:01.033Z,3.13
2023-10-23T02:30:28.673Z,3.38
2023-10-23T02:32:56.261Z,3.50
2023-10-23T02:35:26.132Z,4.53
2023-10-23T02:37:53.541Z,4.93
2023-10-23T02:40:21.101Z,4.05
2023-10-23T02:42:49.684Z,3.05
2023-10-23T02:45:17.297Z,3.45
2023-10-23T02:47:44.795Z,3.55
2023-10-23T02:50:12.595Z,3.78
2023-10-23T02:52:41.415Z,3.45
2023-10-23T02:55:09.121Z,3.58
2023-10-23T02:57:37.050Z,2.90
2023-10-23T03:00:06.594Z,3.70
2023-10-23T03:02:34.373Z,3.25
2023-10-23T03:07:29.236Z,3.35
2023-10-23T03:09:58.029Z,3.38
2023-10-23T03:12:25.619Z,3.10
2023-10-23T03:14:53.097Z,3.08
2023-10-23T03:17:20.566Z,3.83
2023-10-23T03:19:48.156Z,3.33
2023-10-23T03:22:15.597Z,3.50
2023-10-23T03:24:43.337Z,3.50
2023-10-23T03:27:12.478Z,3.58
2023-10-23T03:29:40.130Z,3.38
2023-10-23T03:32:07.769Z,3.17
2023-10-23T03:34:35.363Z,3.38
2023-10-23T03:37:02.860Z,3.45
2023-10-23T03:39:30.341Z,3.35
2023-10-23T03:41:59.815Z,2.85
2023-10-23T03:44:28.590Z,3.40
2023-10-23T03:46:56.476Z,3.50
2023-10-23T03:49:23.931Z,3.33
2023-10-23T03:51:52.398Z,3.78
2023-10-23T03:54:19.876Z,3.65
2023-10-23T03:56:47.399Z,3.58
2023-10-23T03:59:14.877Z,3.30
2023-10-23T04:01:43.705Z,3.80
2023-10-23T04:04:11.387Z,3.03
2023-10-23T04:06:40.060Z,3.50
2023-10-23T04:09:07.797Z,2.92
2023-10-23T04:11:35.248Z,3.50
2023-10-23T04:14:02.695Z,3.50
2023-10-23T04:16:30.148Z,3.58
2023-10-23T04:18:59.000Z,3.50
2023-10-23T04:21:26.510Z,3.80
2023-10-23T04:23:53.985Z,3.22
2023-10-23T04:26:21.459Z,3.55
2023-10-23T04:28:48.899Z,3.72
2023-10-23T04:31:16.560Z,4.50
2023-10-23T04:33:44.010Z,5.05
2023-10-23T04:36:12.823Z,5.18
2023-10-23T04:38:40.279Z,5.03
2023-10-23T04:41:07.696Z,5.80
2023-10-23T04:43:36.592Z,5.00
2023-10-23T04:46:04.264Z,5.72
2023-10-23T04:48:31.870Z,5.50
2023-10-23T04:50:59.480Z,5.88
2023-10-23T04:53:28.354Z,4.80
2023-10-23T04:55:55.856Z,5.15
2023-10-23T04:58:23.463Z,4.28
2023-10-23T05:00:50.994Z,4.20
2023-10-23T05:03:18.435Z,4.57
2023-10-23T05:05:49.176Z,4.05
2023-10-23T05:08:16.701Z,5.05
2023-10-23T05:10:45.511Z,4.30
2023-10-23T05:13:13.081Z,5.03
2023-10-23T05:15:40.532Z,4.78
2023-10-23T05:18:09.114Z,4.75
2023-10-23T05:20:37.557Z,5.53
2023-10-23T05:23:05.226Z,4.32
2023-10-23T05:25:32.725Z,5.95
2023-10-23T05:28:01.533Z,4.80
2023-10-23T05:30:29.039Z,4.75
2023-10-23T05:32:56.518Z,4.68
2023-10-23T05:35:24.011Z,5.20
2023-10-23T05:37:51.423Z,5.47
2023-10-23T05:40:18.870Z,5.30
2023-10-23T05:42:46.350Z,6.00
2023-10-23T05:45:15.258Z,5.88
2023-10-23T05:47:42.706Z,6.00
2023-10-23T05:50:10.690Z,6.85
2023-10-23T05:52:38.125Z,6.45
2023-10-23T05:55:06.419Z,6.78
2023-10-23T05:57:33.986Z,6.38
2023-10-23T06:00:01.916Z,6.72
2023-10-23T06:04:59.854Z,5.65
2023-10-23T06:07:27.359Z,6.05
2023-10-23T06:09:54.922Z,8.05
2023-10-23T06:12:22.393Z,6.82
2023-10-23T06:14:49.817Z,6.10
2023-10-23T06:17:17.249Z,5.85
2023-10-23T06:19:44.681Z,5.50
2023-10-23T06:22:13.502Z,5.28
2023-10-23T06:24:40.989Z,5.28
2023-10-23T06:27:08.472Z,5.50
2023-10-23T06:29:36.069Z,5.43
2023-10-23T06:32:04.228Z,6.30
2023-10-23T06:34:31.701Z,5.82
2023-10-23T06:36:59.172Z,5.88
2023-10-23T06:39:27.977Z,5.00
2023-10-23T06:41:55.587Z,5.40
2023-10-23T06:46:50.627Z,5.30
2023-10-23T06:49:18.147Z,6.22
2023-10-23T06:51:45.612Z,6.72
2023-10-23T06:54:13.512Z,6.55
2023-10-23T06:59:09.802Z,7.88
2023-10-23T07:01:44.431Z,7.28
2023-10-23T07:04:12.735Z,8.05
2023-10-23T07:06:40.318Z,7.25
2023-10-23T07:09:07.795Z,8.30
2023-10-23T07:11:35.338Z,8.50
2023-10-23T07:14:02.850Z,9.27
2023-10-23T07:16:31.751Z,8.80
2023-10-23T07:18:59.982Z,8.50
2023-10-23T07:21:28.579Z,8.55
2023-10-23T07:23:56.137Z,8.88
2023-10-23T07:26:23.602Z,8.38
2023-10-23T07:28:51.340Z,8.57
2023-10-23T07:31:19.134Z,7.93
2023-10-23T07:36:16.025Z,9.20
2023-10-23T07:38:44.445Z,8.32
2023-10-23T07:41:12.704Z,8.60
2023-10-23T07:43:40.563Z,8.27
2023-10-23T07:48:45.032Z,8.60
2023-10-23T07:51:12.823Z,8.48
2023-10-23T07:53:41.817Z,8.77
2023-10-23T07:56:09.724Z,8.02
2023-10-23T07:58:37.247Z,8.25
2023-10-23T08:01:07.459Z,7.82
2023-10-23T08:03:54.352Z,7.90
2023-10-23T08:08:04.768Z,7.72
2023-10-23T08:11:03.534Z,8.32
2023-10-23T08:13:35.557Z,8.57
2023-10-23T08:16:06.204Z,9.20
2023-10-23T08:18:42.158Z,8.63
2023-10-23T08:21:19.389Z,9.48
2023-10-23T08:23:57.707Z,8.20
2023-10-23T08:26:25.784Z,8.15
2023-10-23T08:29:06.173Z,8.13
2023-10-23T08:31:44.667Z,7.55
2023-10-23T08:34:14.716Z,6.35
2023-10-23T08:36:53.109Z,8.80
2023-10-23T08:39:22.473Z,7.55
2023-10-23T08:41:50.566Z,6.25
2023-10-23T08:44:24.094Z,7.30
2023-10-23T08:47:19.870Z,7.38
2023-10-23T08:49:52.197Z,8.20
2023-10-23T08:52:30.849Z,6.57
2023-10-23T08:55:06.611Z,6.10
2023-10-23T08:57:44.606Z,5.57
2023-10-23T09:00:15.658Z,4.97
2023-10-23T09:02:51.895Z,4.53
2023-10-23T09:05:58.676Z,5.13
2023-10-23T09:08:37.797Z,4.65
2023-10-23T09:11:14.269Z,6.03
2023-10-23T09:13:50.693Z,5.38
2023-10-23T09:16:32.293Z,4.25
2023-10-23T09:19:17.974Z,4.00
2023-10-23T09:22:09.593Z,4.13
2023-10-23T09:24:40.740Z,4.28
2023-10-23T09:27:14.830Z,4.20
2023-10-23T09:29:48.033Z,3.15
2023-10-23T09:32:23.460Z,3.27
2023-10-23T09:35:30.540Z,3.28
2023-10-23T09:38:21.757Z,3.15
2023-10-23T09:40:50.410Z,3.30
2023-10-23T09:43:27.607Z,3.00
2023-10-23T09:46:06.615Z,3.08
2023-10-23T09:48:35.590Z,3.05
2023-10-23T09:51:04.689Z,3.08
2023-10-23T09:53:33.113Z,4.45
2023-10-23T09:56:01.342Z,3.08
2023-10-23T09:58:32.728Z,3.33
2023-10-23T10:01:01.720Z,3.25
2023-10-23T10:03:29.874Z,3.20
2023-10-23T10:06:01.218Z,3.08
2023-10-23T10:08:31.020Z,3.70
2023-10-23T10:10:58.956Z,2.95
2023-10-23T10:13:27.818Z,2.88
2023-10-23T10:15:55.466Z,3.60
2023-10-23T10:18:23.332Z,3.80
2023-10-23T10:23:20.183Z,2.90
2023-10-23T10:25:48.086Z,3.42
2023-10-23T10:28:15.637Z,3.40
2023-10-23T10:30:44.157Z,2.88
2023-10-23T10:34:22.996Z,3.00
2023-10-23T10:36:00.840Z,3.08
2023-10-23T10:38:31.662Z,2.75
2023-10-23T10:41:00.053Z,2.47
2023-10-23T10:43:27.994Z,3.13
2023-10-23T10:45:56.430Z,2.90
2023-10-23T10:48:24.569Z,2.85
2023-10-23T10:50:52.143Z,2.90
2023-10-23T10:53:19.716Z,3.05
2023-10-23T10:55:48.599Z,2.35
2023-10-23T10:58:16.317Z,2.63
2023-10-23T11:00:44.119Z,2.97
2023-10-23T11:05:41.111Z,2.70
2023-10-23T11:08:08.534Z,2.97
2023-10-23T11:10:35.946Z,2.47
2023-10-23T11:13:04.822Z,3.63
2023-10-23T11:15:32.476Z,2.53
2023-10-23T11:18:00.018Z,2.28
2023-10-23T11:20:32.167Z,2.20
2023-10-23T11:22:59.993Z,3.05
2023-10-23T11:25:34.279Z,2.90
2023-10-23T11:28:07.638Z,2.72
2023-10-23T11:30:45.367Z,3.10
2023-10-23T11:33:13.112Z,2.80
2023-10-23T11:38:07.880Z,2.63
2023-10-23T11:40:37.879Z,2.30
2023-10-23T11:43:10.365Z,2.65
2023-10-23T11:45:38.082Z,3.20
2023-10-23T11:48:05.870Z,2.38
2023-10-23T11:53:00.790Z,2.47
2023-10-23T11:55:28.407Z,2.70
2023-10-23T11:57:56.070Z,2.72
2023-10-23T12:02:52.642Z,2.50
2023-10-23T12:05:20.728Z,2.70
2023-10-23T12:07:48.965Z,2.17
2023-10-23T12:10:17.834Z,2.88
2023-10-23T12:12:45.898Z,3.08
2023-10-23T12:15:14.077Z,3.53
2023-10-23T12:17:41.757Z,2.55
2023-10-23T12:20:12.267Z,2.25
2023-10-23T12:22:41.561Z,4.18
2023-10-23T12:25:10.079Z,2.88
2023-10-23T12:27:37.881Z,2.55
2023-10-23T12:33:13.383Z,2.70
2023-10-23T12:35:26.346Z,2.67
2023-10-23T12:37:53.852Z,2.70
2023-10-23T12:40:21.350Z,2.25
2023-10-23T12:42:48.836Z,3.30
2023-10-23T12:45:16.342Z,2.00
2023-10-23T12:47:43.931Z,2.03
2023-10-23T12:50:12.098Z,2.05
2023-10-23T12:52:40.916Z,2.67
2023-10-23T12:55:08.774Z,2.00
2023-10-23T12:57:36.230Z,2.28
2023-10-23T13:00:03.812Z,2.33
2023-10-23T13:02:31.264Z,2.50
2023-10-23T13:04:58.965Z,2.20
2023-10-23T13:07:26.564Z,2.45
2023-10-23T13:09:55.401Z,2.40
2023-10-23T13:12:22.845Z,1.95
2023-10-23T13:14:50.633Z,2.20
2023-10-23T13:17:18.100Z,2.22
2023-10-23T13:19:45.566Z,2.90
2023-10-23T13:22:15.924Z,2.63
2023-10-23T13:24:43.417Z,2.13
2023-10-23T13:27:13.394Z,2.85
2023-10-23T13:29:40.958Z,3.00
2023-10-23T13:32:08.690Z,2.38
2023-10-23T13:34:36.206Z,2.05
2023-10-23T13:37:04.364Z,2.70
2023-10-23T13:39:32.910Z,2.50
2023-10-23T13:42:00.678Z,2.55
2023-10-23T13:44:29.475Z,2.58
2023-10-23T13:46:57.069Z,2.97
2023-10-23T13:49:24.670Z,3.08
2023-10-23T13:51:52.167Z,3.53
2023-10-23T13:54:20.125Z,2.83
2023-10-23T13:56:48.257Z,3.47
2023-10-23T13:59:15.800Z,3.60
2023-10-23T14:01:44.719Z,3.53
2023-10-23T14:04:12.476Z,3.88
2023-10-23T14:09:40.682Z,3.58
2023-10-23T14:11:59.911Z,3.42
2023-10-23T14:14:36.994Z,3.83
2023-10-23T14:17:06.307Z,3.92
2023-10-23T14:19:46.623Z,3.33
2023-10-23T14:22:17.079Z,3.10
2023-10-23T14:24:49.078Z,2.70
2023-10-23T14:27:19.802Z,3.53
2023-10-23T14:29:47.731Z,2.83
2023-10-23T14:32:17.023Z,2.97
2023-10-23T14:34:44.737Z,2.15
2023-10-23T14:39:40.283Z,2.38
2023-10-23T14:42:08.772Z,2.30
2023-10-23T14:44:36.824Z,2.40
2023-10-23T14:47:05.187Z,2.58
2023-10-23T14:49:35.386Z,3.05
2023-10-23T14:52:03.839Z,2.78
2023-10-23T14:54:31.783Z,2.88
2023-10-23T14:57:01.400Z,2.30
2023-10-23T14:59:29.205Z,1.65
2023-10-23T15:04:26.734Z,1.52
2023-10-23T15:06:55.926Z,1.55
2023-10-23T15:09:23.622Z,1.80
2023-10-23T15:11:51.417Z,1.55
2023-10-23T15:14:19.065Z,1.50
2023-10-23T15:16:46.965Z,1.88
2023-10-23T15:19:14.733Z,1.67
2023-10-23T15:21:42.884Z,1.75
2023-10-23T15:24:12.088Z,1.77
2023-10-23T15:26:39.889Z,1.95
2023-10-23T15:29:08.494Z,2.35
2023-10-23T15:31:36.595Z,1.42
2023-10-23T15:34:04.568Z,1.40
2023-10-23T15:39:00.371Z,1.75
2023-10-23T15:41:29.463Z,1.90
2023-10-23T15:43:57.607Z,2.55
2023-10-23T15:46:26.190Z,2.00
2023-10-23T15:48:54.184Z,2.58
2023-10-23T15:51:21.778Z,3.70
2023-10-23T15:53:49.709Z,2.83
2023-10-23T16:01:14.095Z,2.45
2023-10-23T16:03:41.923Z,2.20
2023-10-23T16:08:39.316Z,2.58
2023-10-23T16:11:08.415Z,2.05
2023-10-23T16:13:38.885Z,2.17
2023-10-23T16:16:07.143Z,2.03
2023-10-23T16:18:44.762Z,2.40
2023-10-23T16:21:13.905Z,1.45
2023-10-23T16:23:41.717Z,1.45
2023-10-23T16:28:37.143Z,1.80
2023-10-23T16:31:05.063Z,2.00
2023-10-23T16:33:33.125Z,1.40
2023-10-23T16:36:02.218Z,1.48
2023-10-23T16:38:29.965Z,1.55
2023-10-23T16:40:57.596Z,1.35
2023-10-23T16:43:25.623Z,1.63
2023-10-23T16:45:53.341Z,1.48
2023-10-23T16:50:48.655Z,2.10
2023-10-23T16:53:19.840Z,1.58
2023-10-23T16:55:52.347Z,2.67
2023-10-23T16:58:24.464Z,1.70
2023-10-23T17:00:52.994Z,1.98
2023-10-23T17:03:21.019Z,1.80
2023-10-23T17:05:48.870Z,1.60
2023-10-23T17:08:18.914Z,1.63
2023-10-23T17:10:46.577Z,1.60
2023-10-23T17:13:14.378Z,2.60
2023-10-23T17:15:45.137Z,1.88
2023-10-23T17:18:12.914Z,1.75
2023-10-23T17:20:41.442Z,1.65
2023-10-23T17:23:09.306Z,2.72
2023-10-23T17:25:41.870Z,1.55
2023-10-23T17:28:10.168Z,2.03
2023-10-23T17:30:38.159Z,2.25
2023-10-23T17:33:07.594Z,2.22
2023-10-23T17:35:35.805Z,2.30
2023-10-23T17:38:04.306Z,2.58
2023-10-23T17:40:36.968Z,2.10
2023-10-23T17:43:06.059Z,2.85
2023-10-23T17:45:34.022Z,2.42
2023-10-23T17:48:01.701Z,2.65
2023-10-23T17:52:57.041Z,2.10
2023-10-23T17:55:24.689Z,2.47
2023-10-23T17:57:52.494Z,2.38
2023-10-23T18:00:22.522Z,2.45
2023-10-23T18:05:21.310Z,2.72
2023-10-23T18:07:48.956Z,3.17
2023-10-23T18:10:16.844Z,2.65
2023-10-23T18:15:12.255Z,2.50
2023-10-23T18:17:41.737Z,2.60
2023-10-23T18:20:09.983Z,3.13
2023-10-23T18:22:37.671Z,3.83
2023-10-23T18:25:05.693Z,2.58
2023-10-23T18:27:33.443Z,2.10
2023-10-23T18:30:01.303Z,2.78
2023-10-23T18:32:30.579Z,2.65
2023-10-23T18:34:59.648Z,3.30
2023-10-23T18:37:28.222Z,2.65
2023-10-23T18:39:56.336Z,2.83
2023-10-23T18:42:24.669Z,2.75
2023-10-23T18:44:55.188Z,4.47
2023-10-23T18:47:23.500Z,3.25
2023-10-23T18:49:52.375Z,3.63
2023-10-23T18:52:21.807Z,3.17
2023-10-23T18:54:50.769Z,3.15
2023-10-23T19:02:15.202Z,3.33
2023-10-23T19:04:43.549Z,3.92
2023-10-23T19:07:11.786Z,2.97
2023-10-23T19:09:42.250Z,3.65
2023-10-23T19:12:10.373Z,3.72
2023-10-23T19:14:38.467Z,3.45
2023-10-23T19:17:06.424Z,5.10
2023-10-23T19:19:34.776Z,4.18
2023-10-23T19:22:03.950Z,3.25
2023-10-23T19:24:32.104Z,3.00
2023-10-23T19:27:01.367Z,3.60
2023-10-23T19:29:29.490Z,2.88
2023-10-23T19:31:59.621Z,3.28
2023-10-23T19:34:31.909Z,2.88
2023-10-23T19:37:00.518Z,2.72
2023-10-23T19:39:28.990Z,3.03
2023-10-23T19:41:59.577Z,3.15
2023-10-23T19:44:29.864Z,3.35
2023-10-23T19:46:58.900Z,3.42
2023-10-23T19:49:28.971Z,4.15
2023-10-23T19:51:57.262Z,3.50
2023-10-23T19:54:38.734Z,2.83
2023-10-23T19:57:11.200Z,3.33
2023-10-23T19:59:43.825Z,2.80
2023-10-23T20:02:12.474Z,3.40
2023-10-23T20:04:41.429Z,3.53
2023-10-23T20:07:09.486Z,3.20
2023-10-23T20:09:37.735Z,3.28
2023-10-23T20:12:06.320Z,3.42
2023-10-23T20:14:34.560Z,3.30
2023-10-23T20:17:04.068Z,3.25
2023-10-23T20:19:32.257Z,3.20
2023-10-23T20:22:00.349Z,3.40
2023-10-23T20:24:28.405Z,3.05
2023-10-23T20:26:56.719Z,2.80
2023-10-23T20:29:24.818Z,3.00
2023-10-23T20:31:54.378Z,3.15
2023-10-23T20:34:26.797Z,3.30
2023-10-23T20:36:55.002Z,3.60
2023-10-23T20:39:23.058Z,3.10
2023-10-23T20:41:51.093Z,3.05
2023-10-23T20:44:19.365Z,3.95
2023-10-23T20:46:47.396Z,2.95
2023-10-23T20:49:15.421Z,3.53
2023-10-23T20:51:44.748Z,3.40
2023-10-23T20:54:14.500Z,3.05
2023-10-23T20:56:42.488Z,3.05
2023-10-23T20:59:12.001Z,2.85
2023-10-23T21:01:40.018Z,2.85
2023-10-23T21:04:08.073Z,2.75
2023-10-23T21:06:37.160Z,3.35
2023-10-23T21:09:06.970Z,3.22
2023-10-23T21:11:37.678Z,3.50
2023-10-23T21:14:05.772Z,3.63
2023-10-23T21:16:33.900Z,3.15
2023-10-23T21:19:04.474Z,2.45
2023-10-23T21:21:32.546Z,3.75
2023-10-23T21:24:01.626Z,2.55
2023-10-23T21:26:31.600Z,3.17
2023-10-23T21:29:14.338Z,3.22
2023-10-23T21:31:43.237Z,3.05
2023-10-23T21:34:11.319Z,3.97
2023-10-23T21:36:39.677Z,3.47
2023-10-23T21:39:10.697Z,3.20
2023-10-23T21:41:40.320Z,3.22
2023-10-23T21:44:09.101Z,3.10
2023-10-23T21:46:37.187Z,3.20
2023-10-23T21:49:06.044Z,3.17
2023-10-23T21:51:34.137Z,3.20
2023-10-23T21:54:02.461Z,3.38
2023-10-23T21:56:43.476Z,4.30
2023-10-23T21:59:22.506Z,4.43
2023-10-23T22:01:53.644Z,3.22
2023-10-23T22:04:22.660Z,3.28
2023-10-23T22:06:51.572Z,3.90
2023-10-23T22:09:19.972Z,2.88
2023-10-23T22:11:49.339Z,3.13
2023-10-23T22:14:17.921Z,2.85
2023-10-23T22:16:47.206Z,3.30
2023-10-23T22:19:16.771Z,2.95
2023-10-23T22:21:44.817Z,2.88
2023-10-23T22:24:12.478Z,3.00
2023-10-23T22:26:40.567Z,3.05
2023-10-23T22:29:08.574Z,2.63
2023-10-23T22:31:36.779Z,3.05
2023-10-23T22:34:06.388Z,2.67
2023-10-23T22:36:34.338Z,2.90
2023-10-23T22:39:02.620Z,2.85
2023-10-23T22:41:31.475Z,3.15
2023-10-23T22:44:00.362Z,2.90
2023-10-23T22:46:28.452Z,2.97
2023-10-23T22:48:56.645Z,3.38
2023-10-23T22:51:26.597Z,2.70
2023-10-23T22:53:54.648Z,3.55
2023-10-23T22:56:23.373Z,2.85
2023-10-23T22:58:52.041Z,3.20
2023-10-23T23:01:22.063Z,3.17
2023-10-23T23:03:50.477Z,2.83
2023-10-23T23:06:21.293Z,3.00
2023-10-23T23:08:52.787Z,3.28
2023-10-23T23:11:21.024Z,2.80
2023-10-23T23:13:51.163Z,3.53
2023-10-23T23:16:20.021Z,3.28
2023-10-23T23:18:48.911Z,3.30
2023-10-23T23:21:17.324Z,3.13
2023-10-23T23:23:45.388Z,3.28
2023-10-23T23:26:15.878Z,3.42
2023-10-23T23:28:45.229Z,2.80
2023-10-23T23:31:13.874Z,3.40
2023-10-23T23:33:41.831Z,3.15
2023-10-23T23:36:11.005Z,2.42
2023-10-23T23:38:41.486Z,3.08
2023-10-23T23:41:09.641Z,3.55
2023-10-23T23:43:39.013Z,2.55
2023-10-23T23:46:08.043Z,2.95
2023-10-23T23:48:38.227Z,2.50
2023-10-23T23:51:06.368Z,2.53
2023-10-23T23:53:34.458Z,2.78
2023-10-23T23:56:02.602Z,2.30
2023-10-23T23:58:30.860Z,2.15
